Time,TemperatureF,DewpointF,PressureIn,WindDirection,WindDirectionDegrees,WindSpeedMPH,WindSpeedGustMPH,Humidity,HourlyPrecipIn,Conditions,Clouds,dailyrainin,SoftwareType,DateUTC
2013-07-02 00:01:00,59.0,38.0,30.38,WNW,299,0.0,0.0,46,0.00,,,0.00,,2013-07-02 06:01:00,
2013-07-02 00:11:00,59.0,38.0,30.38,NW,326,0.0,0.0,46,0.00,,,0.00,,2013-07-02 06:11:00,
2013-07-02 00:23:00,59.0,36.0,30.38,North,0,3.0,6.0,42,0.00,,,0.00,,2013-07-02 06:23:00,
2013-07-02 00:33:00,59.0,35.0,30.38,North,2,5.0,6.0,40,0.00,,,0.00,,2013-07-02 06:33:00,
2013-07-02 00:43:00,58.0,34.0,30.39,NNE,16,3.0,5.0,41,0.00,,,0.00,,2013-07-02 06:43:00,
2013-07-02 00:53:00,57.0,35.0,30.39,North,0,0.0,0.0,44,0.00,,,0.00,,2013-07-02 06:53:00,
2013-07-02 01:01:00,57.0,35.0,30.39,North,0,0.0,0.0,44,0.00,,,0.00,,2013-07-02 07:01:00,
2013-07-02 01:11:00,56.0,35.0,30.39,North,359,3.0,3.0,45,0.00,,,0.00,,2013-07-02 07:11:00,
2013-07-02 01:22:00,56.0,35.0,30.40,North,350,3.0,5.0,45,0.00,,,0.00,,2013-07-02 07:22:00,
2013-07-02 01:33:00,56.0,35.0,30.40,North,352,2.0,3.0,45,0.00,,,0.00,,2013-07-02 07:33:00,
2013-07-02 01:44:00,55.0,34.0,30.40,North,352,0.0,0.0,45,0.00,,,0.00,,2013-07-02 07:44:00,
2013-07-02 01:52:00,55.0,36.0,30.40,North,7,0.0,0.0,49,0.00,,,0.00,,2013-07-02 07:52:00,
2013-07-02 02:02:00,55.0,36.0,30.40,North,7,0.0,0.0,49,0.00,,,0.00,,2013-07-02 08:02:00,
2013-07-02 02:12:00,55.0,36.0,30.40,North,7,0.0,0.0,49,0.00,,,0.00,,2013-07-02 08:12:00,
2013-07-02 02:22:00,54.0,37.0,30.40,North,7,0.0,0.0,52,0.00,,,0.00,,2013-07-02 08:22:00,
2013-07-02 02:33:00,54.0,37.0,30.40,North,7,0.0,0.0,53,0.00,,,0.00,,2013-07-02 08:33:00,
2013-07-02 02:44:00,53.0,37.0,30.40,North,7,0.0,0.0,55,0.00,,,0.00,,2013-07-02 08:44:00,
2013-07-02 02:53:00,53.0,36.0,30.41,North,7,0.0,0.0,53,0.00,,,0.00,,2013-07-02 08:53:00,
2013-07-02 03:01:00,53.0,36.0,30.40,North,7,0.0,0.0,53,0.00,,,0.00,,2013-07-02 09:01:00,
2013-07-02 03:11:00,53.0,37.0,30.40,North,7,0.0,0.0,54,0.00,,,0.00,,2013-07-02 09:11:00,
2013-07-02 03:22:00,52.0,36.0,30.40,North,7,0.0,0.0,54,0.00,,,0.00,,2013-07-02 09:22:00,
2013-07-02 03:33:00,52.0,36.0,30.40,North,7,0.0,0.0,55,0.00,,,0.00,,2013-07-02 09:33:00,
2013-07-02 03:43:00,52.0,36.0,30.40,North,4,3.0,3.0,54,0.00,,,0.00,,2013-07-02 09:43:00,
2013-07-02 03:52:00,52.0,36.0,30.40,North,4,0.0,3.0,55,0.00,,,0.00,,2013-07-02 09:52:00,
2013-07-02 04:01:00,52.0,37.0,30.40,North,4,1.0,0.0,56,0.00,,,0.00,,2013-07-02 10:01:00,
2013-07-02 04:11:00,51.0,36.0,30.40,North,4,0.0,3.0,57,0.00,,,0.00,,2013-07-02 10:11:00,
2013-07-02 04:22:00,51.0,37.0,30.40,North,1,5.0,6.0,58,0.00,,,0.00,,2013-07-02 10:22:00,
2013-07-02 04:33:00,52.0,38.0,30.40,North,0,5.0,6.0,58,0.00,,,0.00,,2013-07-02 10:33:00,
2013-07-02 04:43:00,52.0,37.0,30.40,NNW,345,3.0,3.0,57,0.00,,,0.00,,2013-07-02 10:43:00,
2013-07-02 04:52:00,52.0,38.0,30.40,North,357,3.0,5.0,58,0.00,,,0.00,,2013-07-02 10:52:00,
2013-07-02 05:01:00,52.0,38.0,30.40,North,3,5.0,7.0,58,0.00,,,0.00,,2013-07-02 11:01:00,
2013-07-02 05:11:00,51.0,38.0,30.40,North,0,3.0,5.0,60,0.00,,,0.00,,2013-07-02 11:11:00,
2013-07-02 05:22:00,51.0,38.0,30.40,North,356,5.0,8.0,60,0.00,,,0.00,,2013-07-02 11:22:00,
2013-07-02 05:33:00,51.0,38.0,30.40,North,7,5.0,6.0,60,0.00,,,0.00,,2013-07-02 11:33:00,
2013-07-02 05:42:00,50.0,37.0,30.40,North,357,5.0,5.0,61,0.00,,,0.00,,2013-07-02 11:42:00,
2013-07-02 05:52:00,50.0,38.0,30.41,North,7,5.0,7.0,64,0.00,,,0.00,,2013-07-02 11:52:00,
2013-07-02 06:01:00,50.0,38.0,30.41,North,9,3.0,6.0,63,0.00,,,0.00,,2013-07-02 12:01:00,
2013-07-02 06:11:00,50.0,38.0,30.41,North,0,3.0,3.0,63,0.00,,,0.00,,2013-07-02 12:11:00,
2013-07-02 06:23:00,50.0,38.0,30.41,North,355,3.0,3.0,64,0.00,,,0.00,,2013-07-02 12:23:00,
2013-07-02 06:33:00,50.0,39.0,30.41,North,350,3.0,5.0,65,0.00,,,0.00,,2013-07-02 12:33:00,
2013-07-02 06:43:00,50.0,38.0,30.41,North,354,3.0,5.0,64,0.00,,,0.00,,2013-07-02 12:43:00,
2013-07-02 06:52:00,50.0,38.0,30.42,North,359,3.0,5.0,64,0.00,,,0.00,,2013-07-02 12:52:00,
2013-07-02 07:01:00,50.0,38.0,30.41,North,1,5.0,6.0,64,0.00,,,0.00,,2013-07-02 13:01:00,
2013-07-02 07:11:00,50.0,38.0,30.41,North,7,5.0,7.0,64,0.00,,,0.00,,2013-07-02 13:11:00,
2013-07-02 07:22:00,51.0,39.0,30.41,North,5,3.0,7.0,63,0.00,,,0.00,,2013-07-02 13:22:00,
2013-07-02 07:34:00,51.0,39.0,30.41,North,2,3.0,5.0,63,0.00,,,0.00,,2013-07-02 13:34:00,
2013-07-02 07:43:00,54.0,39.0,30.41,North,357,2.0,5.0,57,0.00,,,0.00,,2013-07-02 13:43:00,
2013-07-02 07:52:00,55.0,41.0,30.40,North,9,3.0,5.0,58,0.00,,,0.00,,2013-07-02 13:52:00,
2013-07-02 08:01:00,54.0,40.0,30.41,North,353,3.0,6.0,59,0.00,,,0.00,,2013-07-02 14:01:00,
2013-07-02 08:22:00,55.0,40.0,30.40,North,353,2.0,3.0,56,0.00,,,0.00,,2013-07-02 14:22:00,
2013-07-02 08:33:00,57.0,41.0,30.40,North,352,0.0,0.0,55,0.00,,,0.00,,2013-07-02 14:33:00,
2013-07-02 08:43:00,57.0,41.0,30.41,NNE,25,0.0,3.0,54,0.00,,,0.00,,2013-07-02 14:43:00,
2013-07-02 08:53:00,55.0,41.0,30.41,NNE,21,3.0,3.0,58,0.00,,,0.00,,2013-07-02 14:53:00,
2013-07-02 09:02:00,55.0,41.0,30.41,NNE,18,2.0,3.0,59,0.00,,,0.00,,2013-07-02 15:02:00,
2013-07-02 09:11:00,57.0,42.0,30.40,North,359,3.0,5.0,58,0.00,,,0.00,,2013-07-02 15:11:00,
2013-07-02 09:33:00,60.0,43.0,30.40,East,97,0.0,0.0,53,0.00,,,0.00,,2013-07-02 15:33:00,
2013-07-02 09:44:00,60.0,43.0,30.40,East,97,0.0,0.0,53,0.00,,,0.00,,2013-07-02 15:44:00,
2013-07-02 09:53:00,61.0,43.0,30.40,East,97,0.0,0.0,51,0.00,,,0.00,,2013-07-02 15:53:00,
2013-07-02 10:01:00,61.0,43.0,30.40,East,97,0.0,0.0,51,0.00,,,0.00,,2013-07-02 16:01:00,
2013-07-02 10:12:00,64.0,44.0,30.39,East,100,1.0,3.0,49,0.00,,,0.00,,2013-07-02 16:12:00,
2013-07-02 13:43:00,81.0,46.0,30.35,SE,128,5.0,7.0,29,0.00,,,0.00,,2013-07-02 19:43:00,
2013-07-02 16:34:00,85.0,35.0,30.28,NNW,339,9.0,10.0,17,0.00,,,0.00,,2013-07-02 22:34:00,
2013-07-02 16:43:00,83.0,35.0,30.28,West,264,6.0,8.0,18,0.00,,,0.00,,2013-07-02 22:43:00,
2013-07-02 19:22:00,80.0,34.0,30.27,NNW,341,6.0,9.0,19,0.00,,,0.00,,2013-07-03 01:22:00,
2013-07-02 19:33:00,77.0,34.0,30.27,North,355,8.0,9.0,21,0.00,,,0.00,,2013-07-03 01:33:00,
2013-07-02 19:42:00,76.0,33.0,30.27,NNW,330,6.0,10.0,21,0.00,,,0.00,,2013-07-03 01:42:00,
2013-07-02 19:54:00,74.0,32.0,30.26,NNW,347,5.0,8.0,21,0.00,,,0.00,,2013-07-03 01:54:00,
2013-07-02 20:02:00,74.0,32.0,30.26,NNW,347,5.0,8.0,21,0.00,,,0.00,,2013-07-03 02:02:00,
2013-07-02 20:13:00,73.0,32.0,30.26,NW,319,6.0,7.0,22,0.00,,,0.00,,2013-07-03 02:13:00,
2013-07-02 20:25:00,71.0,32.0,30.27,NW,323,1.0,3.0,24,0.00,,,0.00,,2013-07-03 02:25:00,
2013-07-02 20:37:00,70.0,34.0,30.27,NW,324,0.0,0.0,26,0.00,,,0.00,,2013-07-03 02:37:00,
2013-07-02 20:54:00,68.0,33.0,30.28,NW,324,0.0,0.0,27,0.00,,,0.00,,2013-07-03 02:54:00,
2013-07-02 21:02:00,67.0,32.0,30.28,NNW,334,3.0,3.0,27,0.00,,,0.00,,2013-07-03 03:02:00,
2013-07-02 21:13:00,66.0,31.0,30.28,NNW,334,0.0,0.0,27,0.00,,,0.00,,2013-07-03 03:13:00,
2013-07-02 21:25:00,65.0,31.0,30.28,NNW,334,0.0,0.0,28,0.00,,,0.00,,2013-07-03 03:25:00,
2013-07-02 21:35:00,65.0,32.0,30.29,NNW,334,0.0,0.0,29,0.00,,,0.00,,2013-07-03 03:35:00,
2013-07-02 21:45:00,65.0,32.0,30.29,NNW,335,0.0,0.0,29,0.00,,,0.00,,2013-07-03 03:45:00,
2013-07-02 21:54:00,64.0,30.0,30.29,NNW,335,0.0,0.0,28,0.00,,,0.00,,2013-07-03 03:54:00,
2013-07-02 22:01:00,64.0,30.0,30.30,NNW,335,0.0,0.0,28,0.00,,,0.00,,2013-07-03 04:01:00,
2013-07-02 22:11:00,63.0,29.0,30.30,NNW,335,0.0,0.0,28,0.00,,,0.00,,2013-07-03 04:11:00,
2013-07-02 22:22:00,63.0,29.0,30.30,NNW,335,0.0,0.0,28,0.00,,,0.00,,2013-07-03 04:22:00,
2013-07-02 22:33:00,63.0,30.0,30.30,NNW,335,3.0,3.0,29,0.00,,,0.00,,2013-07-03 04:33:00,
2013-07-02 22:43:00,62.0,29.0,30.31,NNW,335,2.0,3.0,29,0.00,,,0.00,,2013-07-03 04:43:00,
2013-07-02 22:52:00,61.0,29.0,30.31,NNW,336,0.0,0.0,29,0.00,,,0.00,,2013-07-03 04:52:00,
2013-07-02 23:01:00,61.0,29.0,30.31,NNW,336,0.0,0.0,29,0.00,,,0.00,,2013-07-03 05:01:00,
2013-07-02 23:11:00,59.0,31.0,30.32,South,190,2.0,3.0,34,0.00,,,0.00,,2013-07-03 05:11:00,
2013-07-02 23:23:00,59.0,35.0,30.32,West,272,1.0,2.0,40,0.00,,,0.00,,2013-07-03 05:23:00,
2013-07-02 23:35:00,59.0,35.0,30.32,West,272,0.0,1.0,41,0.00,,,0.00,,2013-07-03 05:35:00,
2013-07-02 23:44:00,58.0,36.0,30.32,West,272,0.0,2.0,43,0.00,,,0.00,,2013-07-03 05:44:00,